createdAt,value
2023-05-03T00:02:23.848Z,5.26
2023-05-03T00:07:15.807Z,5.21
2023-05-03T00:12:09.108Z,6.64
2023-05-03T00:17:01.015Z,6.61
2023-05-03T00:21:53.215Z,4.84
2023-05-03T00:26:45.131Z,4.54
2023-05-03T00:31:38.070Z,6.33
2023-05-03T00:36:31.099Z,6.25
2023-05-03T00:41:28.980Z,4.55
2023-05-03T00:46:21.246Z,4.49
2023-05-03T00:51:15.288Z,4.92
2023-05-03T00:56:20.194Z,3.64
2023-05-03T01:01:12.120Z,3.88
2023-05-03T01:06:43.558Z,4.56
2023-05-03T01:11:41.945Z,5.73
2023-05-03T01:16:39.636Z,3.78
2023-05-03T01:21:34.119Z,4.80
2023-05-03T01:26:28.845Z,5.62
2023-05-03T01:31:49.384Z,2.88
2023-05-03T01:36:44.294Z,2.38
2023-05-03T01:41:40.722Z,3.74
2023-05-03T01:46:32.700Z,5.17
2023-05-03T01:51:25.171Z,2.68
2023-05-03T01:56:17.020Z,3.24
2023-05-03T02:01:09.713Z,4.99
2023-05-03T02:06:01.762Z,4.01
2023-05-03T02:10:54.550Z,4.93
2023-05-03T02:15:46.461Z,2.29
2023-05-03T02:20:39.166Z,3.01
2023-05-03T02:25:32.158Z,2.36
2023-05-03T02:30:25.171Z,2.75
2023-05-03T02:35:17.192Z,4.68
2023-05-03T02:40:11.427Z,4.56
2023-05-03T02:45:03.525Z,1.92
2023-05-03T02:49:56.470Z,4.40
2023-05-03T02:54:49.783Z,3.64
2023-05-03T02:59:43.071Z,2.26
2023-05-03T03:04:35.126Z,4.19
2023-05-03T03:09:27.067Z,2.05
2023-05-03T03:14:19.725Z,3.23
2023-05-03T03:19:13.565Z,1.71
2023-05-03T03:24:06.920Z,2.70
2023-05-03T03:28:58.926Z,2.50
2023-05-03T03:33:51.108Z,3.98
2023-05-03T03:38:48.386Z,3.93
2023-05-03T03:43:40.589Z,2.13
2023-05-03T03:48:38.214Z,1.20
2023-05-03T03:53:31.239Z,0.88
2023-05-03T03:58:24.726Z,2.32
2023-05-03T04:03:17.897Z,2.02
2023-05-03T04:08:14.357Z,1.60
2023-05-03T04:13:10.464Z,1.00
2023-05-03T04:18:05.306Z,3.32
2023-05-03T04:22:58.830Z,3.19
2023-05-03T04:27:59.508Z,4.36
2023-05-03T04:32:54.633Z,3.65
2023-05-03T04:37:50.103Z,4.01
2023-05-03T04:42:46.384Z,4.30
2023-05-03T04:47:39.517Z,5.03
2023-05-03T04:52:32.037Z,3.29
2023-05-03T04:57:27.584Z,4.58
2023-05-03T05:02:20.130Z,2.78
2023-05-03T05:07:19.388Z,4.21
2023-05-03T05:12:11.825Z,4.31
2023-05-03T05:22:52.166Z,8.15
2023-05-03T05:28:23.560Z,8.21
2023-05-03T05:33:41.215Z,13.55
2023-05-03T05:38:33.096Z,16.65
2023-05-03T05:43:27.157Z,18.04
2023-05-03T05:48:23.347Z,19.67
2023-05-03T05:53:16.024Z,19.76
2023-05-03T05:58:16.493Z,21.51
2023-05-03T06:03:13.914Z,22.55
2023-05-03T06:08:08.911Z,23.51
2023-05-03T06:13:01.729Z,20.79
2023-05-03T06:23:39.743Z,22.44
2023-05-03T06:28:33.156Z,23.74
2023-05-03T06:33:25.668Z,23.39
2023-05-03T06:38:19.017Z,23.46
2023-05-03T06:43:10.952Z,24.38
2023-05-03T06:48:11.911Z,26.39
2023-05-03T06:53:03.859Z,24.85
2023-05-03T06:57:55.913Z,23.16
2023-05-03T07:02:47.896Z,25.29
2023-05-03T07:07:39.791Z,24.98
2023-05-03T07:12:32.330Z,24.88
2023-05-03T07:17:24.952Z,26.13
2023-05-03T07:22:17.147Z,23.75
2023-05-03T07:27:11.170Z,21.71
2023-05-03T07:32:03.734Z,24.06
2023-05-03T07:37:01.388Z,24.90
2023-05-03T08:18:00.291Z,27.73
2023-05-03T08:22:52.759Z,26.61
2023-05-03T08:27:44.978Z,24.60
2023-05-03T08:32:37.003Z,28.05
2023-05-03T08:37:28.992Z,28.66
2023-05-03T08:42:25.755Z,25.76
2023-05-03T08:47:18.174Z,24.72
2023-05-03T08:52:12.389Z,26.70
2023-05-03T08:57:04.605Z,26.34
2023-05-03T09:01:56.995Z,26.71
2023-05-03T09:06:51.833Z,24.32
2023-05-03T09:11:46.823Z,25.99
2023-05-03T09:16:42.655Z,24.33
2023-05-03T09:21:35.688Z,25.20
2023-05-03T09:26:28.935Z,22.25
2023-05-03T09:31:20.781Z,24.38
2023-05-03T09:36:13.876Z,24.60
2023-05-03T09:41:11.595Z,23.42
2023-05-03T09:46:13.041Z,24.35
2023-05-03T09:51:05.739Z,23.30
2023-05-03T09:55:59.648Z,20.47
2023-05-03T10:00:52.826Z,19.37
2023-05-03T10:05:49.699Z,20.59
2023-05-03T10:10:44.851Z,20.04
2023-05-03T10:15:39.583Z,17.80
2023-05-03T10:20:35.894Z,18.53
2023-05-03T10:25:28.120Z,18.94
2023-05-03T10:30:41.202Z,18.38
2023-05-03T10:35:33.281Z,15.43
2023-05-03T10:40:43.387Z,15.56
2023-05-03T10:45:36.994Z,17.52
2023-05-03T10:50:28.996Z,17.41
2023-05-03T10:55:25.056Z,15.21
2023-05-03T11:00:31.410Z,17.18
2023-05-03T11:05:27.272Z,17.71
2023-05-03T11:10:23.752Z,17.26
2023-05-03T11:15:16.467Z,13.88
2023-05-03T11:20:08.908Z,16.58
2023-05-03T11:25:01.250Z,15.33
2023-05-03T11:29:59.016Z,15.74
2023-05-03T11:34:51.546Z,15.51
2023-05-03T11:39:46.530Z,15.66
2023-05-03T11:44:39.595Z,16.16
2023-05-03T11:49:33.050Z,17.11
2023-05-03T11:54:29.430Z,17.91
2023-05-03T11:59:38.726Z,18.29
2023-05-03T12:04:32.213Z,14.82
2023-05-03T12:09:29.457Z,16.78
2023-05-03T12:14:22.236Z,17.16
2023-05-03T12:19:24.966Z,16.72
2023-05-03T12:24:20.407Z,17.97
2023-05-03T12:29:13.801Z,16.44
2023-05-03T12:34:30.920Z,18.40
2023-05-03T12:39:21.981Z,18.32
2023-05-03T12:44:16.766Z,18.59
2023-05-03T12:49:13.090Z,18.03
2023-05-03T12:54:10.229Z,18.75
2023-05-03T12:59:31.805Z,18.70
2023-05-03T13:09:19.359Z,16.96
2023-05-03T13:14:14.375Z,16.47
2023-05-03T13:19:11.315Z,18.44
2023-05-03T13:24:03.564Z,18.77
2023-05-03T13:28:56.130Z,19.17
2023-05-03T13:33:54.270Z,19.11
2023-05-03T13:38:47.689Z,17.19
2023-05-03T13:43:42.300Z,16.90
2023-05-03T13:48:34.633Z,17.17
2023-05-03T13:53:27.434Z,18.56
2023-05-03T13:58:20.165Z,17.88
2023-05-03T14:03:12.575Z,18.04
2023-05-03T14:08:05.316Z,16.42
2023-05-03T14:12:58.245Z,18.32
2023-05-03T14:17:58.230Z,19.64
2023-05-03T14:22:52.152Z,19.98
2023-05-03T14:27:44.220Z,19.24
2023-05-03T14:32:36.633Z,18.84
2023-05-03T14:37:28.530Z,16.77
2023-05-03T14:42:20.620Z,18.30
2023-05-03T14:47:12.536Z,20.11
2023-05-03T14:52:04.807Z,17.80
2023-05-03T14:57:01.545Z,19.56
2023-05-03T15:01:56.794Z,19.71
2023-05-03T15:06:55.116Z,17.25
2023-05-03T15:11:51.504Z,19.63
2023-05-03T15:16:45.194Z,18.70
2023-05-03T15:21:47.271Z,18.88
2023-05-03T15:26:47.501Z,19.96
2023-05-03T15:31:39.408Z,18.60
2023-05-03T15:36:32.540Z,19.22
2023-05-03T15:41:25.951Z,19.77
2023-05-03T15:46:17.864Z,20.02
2023-05-03T15:51:09.805Z,19.37
2023-05-03T15:56:02.547Z,18.96
2023-05-03T16:06:12.932Z,19.37
2023-05-03T16:11:05.000Z,18.63
2023-05-03T16:15:59.756Z,18.52
2023-05-03T16:20:52.190Z,18.19
2023-05-03T16:25:44.130Z,18.34
2023-05-03T16:30:37.008Z,19.40
2023-05-03T16:35:29.155Z,19.16
2023-05-03T16:40:21.396Z,18.67
2023-05-03T16:45:16.986Z,18.32
2023-05-03T16:50:10.263Z,17.99
2023-05-03T16:55:02.364Z,17.55
2023-05-03T16:59:54.127Z,18.89
2023-05-03T17:04:46.714Z,16.59
2023-05-03T17:09:39.728Z,17.80
2023-05-03T17:14:31.732Z,18.89
2023-05-03T17:19:24.223Z,18.18
2023-05-03T17:24:16.160Z,17.06
2023-05-03T17:29:08.721Z,18.80
2023-05-03T17:34:00.713Z,17.05
2023-05-03T17:38:52.529Z,17.99
2023-05-03T17:43:44.822Z,18.00
2023-05-03T17:48:39.597Z,18.09
2023-05-03T17:53:31.768Z,18.08
2023-05-03T17:58:24.056Z,16.81
2023-05-03T18:03:17.222Z,16.99
2023-05-03T18:08:09.682Z,17.61
2023-05-03T18:13:02.150Z,16.74
2023-05-03T18:17:55.014Z,16.38
2023-05-03T18:22:47.866Z,14.55
2023-05-03T18:27:40.090Z,14.62
2023-05-03T18:32:32.948Z,16.58
2023-05-03T18:37:24.972Z,16.26
2023-05-03T18:42:19.592Z,14.32
2023-05-03T18:47:13.855Z,13.94
2023-05-03T18:52:06.432Z,15.68
2023-05-03T18:57:01.697Z,14.92
2023-05-03T19:02:20.132Z,15.26
2023-05-03T19:07:11.959Z,13.81
2023-05-03T19:12:04.239Z,13.35
2023-05-03T19:16:56.189Z,13.17
2023-05-03T19:21:48.124Z,14.66
2023-05-03T19:26:40.169Z,12.79
2023-05-03T19:31:33.096Z,14.36
2023-05-03T19:36:37.521Z,12.68
2023-05-03T19:41:30.059Z,12.51
2023-05-03T19:46:22.927Z,14.00
2023-05-03T19:51:17.001Z,12.44
2023-05-03T19:56:10.102Z,11.57
2023-05-03T20:01:05.425Z,13.60
2023-05-03T20:05:57.867Z,12.03
2023-05-03T20:10:50.194Z,11.41
2023-05-03T20:15:42.447Z,11.71
2023-05-03T20:20:34.582Z,13.13
2023-05-03T20:25:27.329Z,12.71
2023-05-03T20:30:19.760Z,11.31
2023-05-03T20:35:12.410Z,11.07
2023-05-03T20:40:06.777Z,10.39
2023-05-03T20:44:59.183Z,10.66
2023-05-03T20:49:51.149Z,9.98
2023-05-03T20:54:45.081Z,11.22
2023-05-03T20:59:37.564Z,11.76
2023-05-03T21:04:30.257Z,10.41
2023-05-03T21:09:22.224Z,10.76
2023-05-03T21:14:14.652Z,9.23
2023-05-03T21:19:06.656Z,8.70
2023-05-03T21:23:59.267Z,9.85
2023-05-03T21:28:51.379Z,10.05
2023-05-03T21:33:43.559Z,11.54
2023-05-03T21:38:35.686Z,9.63
2023-05-03T21:43:27.497Z,10.50
2023-05-03T21:48:19.404Z,9.16
2023-05-03T21:53:11.323Z,8.76
2023-05-03T21:58:03.217Z,9.61
2023-05-03T22:02:55.198Z,10.71
2023-05-03T22:07:48.100Z,8.82
2023-05-03T22:12:40.235Z,8.75
2023-05-03T22:17:32.492Z,10.95
2023-05-03T22:22:49.986Z,10.11
2023-05-03T22:27:42.700Z,9.89
2023-05-03T22:32:35.103Z,7.88
2023-05-03T22:37:27.065Z,9.42
2023-05-03T22:42:19.833Z,9.83
2023-05-03T22:47:11.866Z,8.65
2023-05-03T22:52:09.088Z,8.57
2023-05-03T22:57:01.363Z,9.26
2023-05-03T23:01:55.190Z,7.56
2023-05-03T23:06:47.171Z,9.98
2023-05-03T23:11:39.072Z,10.13
2023-05-03T23:16:31.065Z,10.11
2023-05-03T23:21:24.617Z,9.96
2023-05-03T23:26:16.559Z,10.19
2023-05-03T23:31:09.023Z,9.30
2023-05-03T23:36:01.425Z,7.87
2023-05-03T23:40:54.058Z,8.10
2023-05-03T23:45:46.199Z,8.91
2023-05-03T23:50:38.280Z,7.85
2023-05-03T23:55:30.153Z,9.29
